sensor_id;sensor_type;location;lat;lon;timestamp;P1;durP1;ratioP1;P2;durP2;ratioP2
67757;SDS011;54562;47.620;18.786;2022-11-15T00:01:40;22.20;;;15.00;;
67757;SDS011;54562;47.620;18.786;2022-11-15T00:04:48;23.60;;;15.60;;
67757;SDS011;54562;47.620;18.786;2022-11-15T00:07:57;21.80;;;11.40;;
67757;SDS011;54562;47.620;18.786;2022-11-15T00:11:06;18.10;;;9.90;;
67757;SDS011;54562;47.620;18.786;2022-11-15T00:17:23;19.80;;;9.90;;
67757;SDS011;54562;47.620;18.786;2022-11-15T00:20:32;16.80;;;9.20;;
67757;SDS011;54562;47.620;18.786;2022-11-15T00:23:41;17.80;;;10.20;;
67757;SDS011;54562;47.620;18.786;2022-11-15T00:26:49;17.90;;;10.10;;
67757;SDS011;54562;47.620;18.786;2022-11-15T00:29:57;22.60;;;13.10;;
67757;SDS011;54562;47.620;18.786;2022-11-15T00:33:08;22.40;;;14.50;;
67757;SDS011;54562;47.620;18.786;2022-11-15T00:36:16;23.10;;;15.00;;
67757;SDS011;54562;47.620;18.786;2022-11-15T00:39:24;23.80;;;14.60;;
67757;SDS011;54562;47.620;18.786;2022-11-15T00:42:34;22.10;;;13.60;;
67757;SDS011;54562;47.620;18.786;2022-11-15T00:45:42;22.60;;;14.10;;
67757;SDS011;54562;47.620;18.786;2022-11-15T00:48:50;22.00;;;14.00;;
67757;SDS011;54562;47.620;18.786;2022-11-15T00:51:58;24.60;;;15.40;;
67757;SDS011;54562;47.620;18.786;2022-11-15T00:55:07;24.00;;;15.50;;
67757;SDS011;54562;47.620;18.786;2022-11-15T00:58:18;25.40;;;15.80;;
67757;SDS011;54562;47.620;18.786;2022-11-15T01:01:27;27.70;;;15.80;;
67757;SDS011;54562;47.620;18.786;2022-11-15T01:04:35;24.50;;;16.70;;
67757;SDS011;54562;47.620;18.786;2022-11-15T01:07:43;22.20;;;14.70;;
67757;SDS011;54562;47.620;18.786;2022-11-15T01:10:51;25.80;;;15.30;;
67757;SDS011;54562;47.620;18.786;2022-11-15T01:13:59;23.80;;;15.70;;
67757;SDS011;54562;47.620;18.786;2022-11-15T01:17:07;24.50;;;16.10;;
67757;SDS011;54562;47.620;18.786;2022-11-15T01:20:15;23.00;;;15.10;;
67757;SDS011;54562;47.620;18.786;2022-11-15T01:23:23;22.30;;;14.90;;
67757;SDS011;54562;47.620;18.786;2022-11-15T01:26:31;26.60;;;14.70;;
67757;SDS011;54562;47.620;18.786;2022-11-15T01:29:39;22.30;;;15.00;;
67757;SDS011;54562;47.620;18.786;2022-11-15T01:32:48;19.90;;;14.50;;
67757;SDS011;54562;47.620;18.786;2022-11-15T01:35:56;21.80;;;14.40;;
67757;SDS011;54562;47.620;18.786;2022-11-15T01:39:04;22.90;;;15.10;;
67757;SDS011;54562;47.620;18.786;2022-11-15T01:42:15;22.00;;;15.10;;
67757;SDS011;54562;47.620;18.786;2022-11-15T01:45:24;22.50;;;15.00;;
67757;SDS011;54562;47.620;18.786;2022-11-15T01:48:33;21.60;;;14.30;;
67757;SDS011;54562;47.620;18.786;2022-11-15T01:51:43;20.80;;;13.80;;
67757;SDS011;54562;47.620;18.786;2022-11-15T01:54:55;22.80;;;15.50;;
67757;SDS011;54562;47.620;18.786;2022-11-15T01:58:08;22.90;;;14.60;;
67757;SDS011;54562;47.620;18.786;2022-11-15T02:01:16;23.00;;;14.90;;
67757;SDS011;54562;47.620;18.786;2022-11-15T02:04:28;21.40;;;14.90;;
67757;SDS011;54562;47.620;18.786;2022-11-15T02:07:38;14.40;;;9.00;;
67757;SDS011;54562;47.620;18.786;2022-11-15T02:10:48;14.30;;;8.10;;
67757;SDS011;54562;47.620;18.786;2022-11-15T02:13:58;19.80;;;13.00;;
67757;SDS011;54562;47.620;18.786;2022-11-15T02:17:20;19.00;;;13.30;;
67757;SDS011;54562;47.620;18.786;2022-11-15T02:21:10;21.50;;;14.10;;
67757;SDS011;54562;47.620;18.786;2022-11-15T02:24:48;20.20;;;13.50;;
67757;SDS011;54562;47.620;18.786;2022-11-15T02:28:32;21.40;;;13.90;;
67757;SDS011;54562;47.620;18.786;2022-11-15T02:31:59;21.00;;;13.70;;
67757;SDS011;54562;47.620;18.786;2022-11-15T02:35:20;16.40;;;7.80;;
67757;SDS011;54562;47.620;18.786;2022-11-15T02:38:40;14.60;;;8.10;;
67757;SDS011;54562;47.620;18.786;2022-11-15T02:41:57;15.10;;;8.00;;
67757;SDS011;54562;47.620;18.786;2022-11-15T02:45:11;12.60;;;7.40;;
67757;SDS011;54562;47.620;18.786;2022-11-15T02:48:24;11.50;;;6.20;;
67757;SDS011;54562;47.620;18.786;2022-11-15T02:51:34;14.20;;;7.10;;
67757;SDS011;54562;47.620;18.786;2022-11-15T02:54:42;15.00;;;8.40;;
67757;SDS011;54562;47.620;18.786;2022-11-15T02:58:09;13.90;;;7.30;;
67757;SDS011;54562;47.620;18.786;2022-11-15T03:01:38;17.00;;;8.80;;
67757;SDS011;54562;47.620;18.786;2022-11-15T03:04:57;13.80;;;7.40;;
67757;SDS011;54562;47.620;18.786;2022-11-15T03:08:12;14.10;;;8.20;;
67757;SDS011;54562;47.620;18.786;2022-11-15T03:11:26;14.30;;;8.20;;
67757;SDS011;54562;47.620;18.786;2022-11-15T03:14:42;13.60;;;7.50;;
67757;SDS011;54562;47.620;18.786;2022-11-15T03:18:00;13.90;;;7.30;;
67757;SDS011;54562;47.620;18.786;2022-11-15T03:21:13;13.70;;;7.30;;
67757;SDS011;54562;47.620;18.786;2022-11-15T03:24:27;13.50;;;7.40;;
67757;SDS011;54562;47.620;18.786;2022-11-15T03:27:40;12.50;;;7.30;;
67757;SDS011;54562;47.620;18.786;2022-11-15T03:30:53;12.60;;;6.90;;
67757;SDS011;54562;47.620;18.786;2022-11-15T03:34:04;14.20;;;6.70;;
67757;SDS011;54562;47.620;18.786;2022-11-15T03:37:20;12.80;;;6.60;;
67757;SDS011;54562;47.620;18.786;2022-11-15T03:40:36;10.50;;;5.40;;
67757;SDS011;54562;47.620;18.786;2022-11-15T03:43:51;13.50;;;6.80;;
67757;SDS011;54562;47.620;18.786;2022-11-15T03:47:06;13.40;;;7.00;;
67757;SDS011;54562;47.620;18.786;2022-11-15T03:50:19;13.10;;;7.20;;
67757;SDS011;54562;47.620;18.786;2022-11-15T03:53:31;13.40;;;6.30;;
67757;SDS011;54562;47.620;18.786;2022-11-15T03:56:39;12.80;;;6.70;;
67757;SDS011;54562;47.620;18.786;2022-11-15T03:59:47;12.50;;;6.80;;
67757;SDS011;54562;47.620;18.786;2022-11-15T04:02:55;11.70;;;6.30;;
67757;SDS011;54562;47.620;18.786;2022-11-15T04:06:04;6.90;;;3.70;;
67757;SDS011;54562;47.620;18.786;2022-11-15T04:09:12;14.60;;;6.90;;
67757;SDS011;54562;47.620;18.786;2022-11-15T04:12:21;14.30;;;8.60;;
67757;SDS011;54562;47.620;18.786;2022-11-15T04:15:36;14.20;;;7.90;;
67757;SDS011;54562;47.620;18.786;2022-11-15T04:18:44;16.60;;;9.00;;
67757;SDS011;54562;47.620;18.786;2022-11-15T04:22:13;16.10;;;8.70;;
67757;SDS011;54562;47.620;18.786;2022-11-15T04:25:40;14.70;;;8.20;;
67757;SDS011;54562;47.620;18.786;2022-11-15T04:28:49;14.20;;;8.20;;
67757;SDS011;54562;47.620;18.786;2022-11-15T04:32:14;15.90;;;9.00;;
67757;SDS011;54562;47.620;18.786;2022-11-15T04:35:22;15.30;;;8.40;;
67757;SDS011;54562;47.620;18.786;2022-11-15T04:38:30;15.80;;;9.50;;
67757;SDS011;54562;47.620;18.786;2022-11-15T04:41:39;14.60;;;8.50;;
67757;SDS011;54562;47.620;18.786;2022-11-15T04:44:46;17.80;;;10.80;;
67757;SDS011;54562;47.620;18.786;2022-11-15T04:47:55;24.20;;;13.70;;
67757;SDS011;54562;47.620;18.786;2022-11-15T04:51:02;24.60;;;14.60;;
67757;SDS011;54562;47.620;18.786;2022-11-15T04:54:11;26.00;;;14.50;;
67757;SDS011;54562;47.620;18.786;2022-11-15T04:57:18;17.20;;;9.60;;
67757;SDS011;54562;47.620;18.786;2022-11-15T05:00:27;15.90;;;9.20;;
67757;SDS011;54562;47.620;18.786;2022-11-15T05:03:36;17.60;;;10.40;;
67757;SDS011;54562;47.620;18.786;2022-11-15T05:07:02;18.20;;;10.80;;
67757;SDS011;54562;47.620;18.786;2022-11-15T05:10:11;15.10;;;8.90;;
67757;SDS011;54562;47.620;18.786;2022-11-15T05:13:19;20.80;;;10.60;;
67757;SDS011;54562;47.620;18.786;2022-11-15T05:16:27;19.00;;;10.70;;
67757;SDS011;54562;47.620;18.786;2022-11-15T05:19:35;18.30;;;10.10;;
67757;SDS011;54562;47.620;18.786;2022-11-15T05:22:43;20.10;;;11.40;;
67757;SDS011;54562;47.620;18.786;2022-11-15T05:25:53;18.70;;;10.70;;
67757;SDS011;54562;47.620;18.786;2022-11-15T05:29:12;20.00;;;11.90;;
67757;SDS011;54562;47.620;18.786;2022-11-15T05:32:21;17.60;;;10.70;;
67757;SDS011;54562;47.620;18.786;2022-11-15T05:35:33;19.50;;;11.40;;
67757;SDS011;54562;47.620;18.786;2022-11-15T05:38:45;22.80;;;12.90;;
67757;SDS011;54562;47.620;18.786;2022-11-15T05:41:56;19.20;;;11.90;;
67757;SDS011;54562;47.620;18.786;2022-11-15T05:45:09;16.70;;;8.30;;
67757;SDS011;54562;47.620;18.786;2022-11-15T05:48:18;20.00;;;11.70;;
67757;SDS011;54562;47.620;18.786;2022-11-15T05:51:28;20.70;;;11.30;;
67757;SDS011;54562;47.620;18.786;2022-11-15T05:54:37;16.70;;;9.80;;
67757;SDS011;54562;47.620;18.786;2022-11-15T05:57:47;21.80;;;12.40;;
67757;SDS011;54562;47.620;18.786;2022-11-15T06:00:55;17.20;;;9.30;;
67757;SDS011;54562;47.620;18.786;2022-11-15T06:04:04;19.10;;;10.60;;
67757;SDS011;54562;47.620;18.786;2022-11-15T06:07:11;20.50;;;11.50;;
67757;SDS011;54562;47.620;18.786;2022-11-15T06:10:20;20.70;;;12.10;;
67757;SDS011;54562;47.620;18.786;2022-11-15T06:13:28;20.10;;;12.20;;
67757;SDS011;54562;47.620;18.786;2022-11-15T06:16:37;20.00;;;10.40;;
67757;SDS011;54562;47.620;18.786;2022-11-15T06:19:45;23.10;;;13.40;;
67757;SDS011;54562;47.620;18.786;2022-11-15T06:22:57;23.00;;;12.40;;
67757;SDS011;54562;47.620;18.786;2022-11-15T06:26:06;20.80;;;11.90;;
67757;SDS011;54562;47.620;18.786;2022-11-15T06:29:15;23.30;;;13.40;;
67757;SDS011;54562;47.620;18.786;2022-11-15T06:32:23;23.30;;;14.10;;
67757;SDS011;54562;47.620;18.786;2022-11-15T06:35:34;24.30;;;13.70;;
67757;SDS011;54562;47.620;18.786;2022-11-15T06:38:42;24.20;;;14.20;;
67757;SDS011;54562;47.620;18.786;2022-11-15T06:41:52;23.70;;;11.70;;
67757;SDS011;54562;47.620;18.786;2022-11-15T06:45:00;25.70;;;14.10;;
67757;SDS011;54562;47.620;18.786;2022-11-15T06:48:09;22.80;;;12.90;;
67757;SDS011;54562;47.620;18.786;2022-11-15T06:51:18;23.70;;;14.00;;
67757;SDS011;54562;47.620;18.786;2022-11-15T06:54:26;28.90;;;14.70;;
67757;SDS011;54562;47.620;18.786;2022-11-15T06:57:35;25.50;;;13.20;;
67757;SDS011;54562;47.620;18.786;2022-11-15T07:00:44;28.40;;;14.90;;
67757;SDS011;54562;47.620;18.786;2022-11-15T07:03:52;21.20;;;11.70;;
67757;SDS011;54562;47.620;18.786;2022-11-15T07:07:00;26.00;;;14.20;;
67757;SDS011;54562;47.620;18.786;2022-11-15T07:10:10;25.10;;;13.60;;
67757;SDS011;54562;47.620;18.786;2022-11-15T07:13:19;25.50;;;14.20;;
67757;SDS011;54562;47.620;18.786;2022-11-15T07:16:30;24.80;;;13.80;;
67757;SDS011;54562;47.620;18.786;2022-11-15T07:19:38;25.70;;;14.90;;
67757;SDS011;54562;47.620;18.786;2022-11-15T07:22:46;26.40;;;15.70;;
67757;SDS011;54562;47.620;18.786;2022-11-15T07:25:55;26.40;;;15.30;;
67757;SDS011;54562;47.620;18.786;2022-11-15T07:29:04;24.30;;;14.30;;
67757;SDS011;54562;47.620;18.786;2022-11-15T07:32:12;24.30;;;14.40;;
67757;SDS011;54562;47.620;18.786;2022-11-15T07:35:20;27.40;;;16.00;;
67757;SDS011;54562;47.620;18.786;2022-11-15T07:38:29;25.60;;;14.40;;
67757;SDS011;54562;47.620;18.786;2022-11-15T07:41:43;30.70;;;16.60;;
67757;SDS011;54562;47.620;18.786;2022-11-15T07:44:53;30.60;;;16.40;;
67757;SDS011;54562;47.620;18.786;2022-11-15T07:48:01;31.80;;;17.20;;
67757;SDS011;54562;47.620;18.786;2022-11-15T07:51:12;35.80;;;19.80;;
67757;SDS011;54562;47.620;18.786;2022-11-15T07:54:21;28.80;;;17.30;;
67757;SDS011;54562;47.620;18.786;2022-11-15T07:57:30;29.00;;;16.50;;
67757;SDS011;54562;47.620;18.786;2022-11-15T08:00:38;32.00;;;16.90;;
67757;SDS011;54562;47.620;18.786;2022-11-15T08:03:47;30.70;;;16.10;;
67757;SDS011;54562;47.620;18.786;2022-11-15T08:06:55;32.60;;;18.40;;
67757;SDS011;54562;47.620;18.786;2022-11-15T08:10:04;32.00;;;18.50;;
67757;SDS011;54562;47.620;18.786;2022-11-15T08:13:14;31.10;;;16.90;;
67757;SDS011;54562;47.620;18.786;2022-11-15T08:16:23;35.10;;;20.80;;
67757;SDS011;54562;47.620;18.786;2022-11-15T08:19:31;31.10;;;17.70;;
67757;SDS011;54562;47.620;18.786;2022-11-15T08:22:39;31.20;;;18.30;;
67757;SDS011;54562;47.620;18.786;2022-11-15T08:25:46;28.10;;;17.60;;
67757;SDS011;54562;47.620;18.786;2022-11-15T08:28:55;28.90;;;17.70;;
67757;SDS011;54562;47.620;18.786;2022-11-15T08:32:03;28.90;;;16.10;;
67757;SDS011;54562;47.620;18.786;2022-11-15T08:35:12;31.90;;;18.90;;
67757;SDS011;54562;47.620;18.786;2022-11-15T08:38:20;33.00;;;19.10;;
67757;SDS011;54562;47.620;18.786;2022-11-15T08:41:33;35.10;;;20.30;;
67757;SDS011;54562;47.620;18.786;2022-11-15T08:44:42;30.10;;;17.80;;
67757;SDS011;54562;47.620;18.786;2022-11-15T08:47:51;31.30;;;17.50;;
67757;SDS011;54562;47.620;18.786;2022-11-15T08:50:59;32.50;;;18.50;;
67757;SDS011;54562;47.620;18.786;2022-11-15T08:54:07;30.80;;;18.20;;
67757;SDS011;54562;47.620;18.786;2022-11-15T08:57:15;28.30;;;15.00;;
67757;SDS011;54562;47.620;18.786;2022-11-15T09:00:25;35.90;;;19.90;;
67757;SDS011;54562;47.620;18.786;2022-11-15T09:03:33;23.50;;;13.40;;
67757;SDS011;54562;47.620;18.786;2022-11-15T09:06:42;35.20;;;19.50;;
67757;SDS011;54562;47.620;18.786;2022-11-15T09:09:51;25.50;;;12.60;;
67757;SDS011;54562;47.620;18.786;2022-11-15T09:12:59;30.60;;;17.30;;
67757;SDS011;54562;47.620;18.786;2022-11-15T09:16:09;24.60;;;13.80;;
67757;SDS011;54562;47.620;18.786;2022-11-15T09:19:18;32.00;;;19.00;;
67757;SDS011;54562;47.620;18.786;2022-11-15T09:22:26;33.10;;;19.30;;
67757;SDS011;54562;47.620;18.786;2022-11-15T09:25:35;30.50;;;17.40;;
67757;SDS011;54562;47.620;18.786;2022-11-15T09:28:43;32.70;;;18.10;;
67757;SDS011;54562;47.620;18.786;2022-11-15T09:31:53;30.10;;;18.00;;
67757;SDS011;54562;47.620;18.786;2022-11-15T09:35:01;39.00;;;20.40;;
67757;SDS011;54562;47.620;18.786;2022-11-15T09:38:09;31.80;;;20.10;;
67757;SDS011;54562;47.620;18.786;2022-11-15T09:45:12;32.40;;;18.70;;
67757;SDS011;54562;47.620;18.786;2022-11-15T09:48:38;31.10;;;19.10;;
67757;SDS011;54562;47.620;18.786;2022-11-15T09:52:01;28.90;;;18.10;;
67757;SDS011;54562;47.620;18.786;2022-11-15T09:55:11;31.60;;;19.40;;
67757;SDS011;54562;47.620;18.786;2022-11-15T09:58:32;29.30;;;17.20;;
67757;SDS011;54562;47.620;18.786;2022-11-15T10:01:48;28.50;;;18.40;;
67757;SDS011;54562;47.620;18.786;2022-11-15T10:08:24;26.10;;;17.10;;
67757;SDS011;54562;47.620;18.786;2022-11-15T10:11:39;26.90;;;16.90;;
67757;SDS011;54562;47.620;18.786;2022-11-15T10:14:58;28.50;;;17.10;;
67757;SDS011;54562;47.620;18.786;2022-11-15T10:18:17;28.00;;;16.30;;
67757;SDS011;54562;47.620;18.786;2022-11-15T10:21:48;28.10;;;17.10;;
67757;SDS011;54562;47.620;18.786;2022-11-15T10:25:18;28.50;;;16.30;;
67757;SDS011;54562;47.620;18.786;2022-11-15T10:28:29;27.70;;;16.10;;
67757;SDS011;54562;47.620;18.786;2022-11-15T10:31:40;25.40;;;15.10;;
67757;SDS011;54562;47.620;18.786;2022-11-15T10:34:49;33.30;;;19.80;;
67757;SDS011;54562;47.620;18.786;2022-11-15T10:38:08;28.90;;;17.20;;
67757;SDS011;54562;47.620;18.786;2022-11-15T10:41:18;30.50;;;18.50;;
67757;SDS011;54562;47.620;18.786;2022-11-15T10:44:30;28.60;;;16.30;;
67757;SDS011;54562;47.620;18.786;2022-11-15T10:47:47;32.10;;;18.00;;
67757;SDS011;54562;47.620;18.786;2022-11-15T10:50:56;33.70;;;19.30;;
67757;SDS011;54562;47.620;18.786;2022-11-15T10:54:04;27.60;;;15.90;;
67757;SDS011;54562;47.620;18.786;2022-11-15T10:57:24;27.70;;;17.20;;
67757;SDS011;54562;47.620;18.786;2022-11-15T11:00:36;31.30;;;19.30;;
67757;SDS011;54562;47.620;18.786;2022-11-15T11:03:59;30.00;;;18.30;;
67757;SDS011;54562;47.620;18.786;2022-11-15T11:07:21;29.40;;;18.30;;
67757;SDS011;54562;47.620;18.786;2022-11-15T11:10:31;28.00;;;17.30;;
67757;SDS011;54562;47.620;18.786;2022-11-15T11:13:55;34.70;;;19.40;;
67757;SDS011;54562;47.620;18.786;2022-11-15T11:17:26;31.10;;;18.20;;
67757;SDS011;54562;47.620;18.786;2022-11-15T11:20:45;32.30;;;19.20;;
67757;SDS011;54562;47.620;18.786;2022-11-15T11:24:02;31.20;;;18.70;;
67757;SDS011;54562;47.620;18.786;2022-11-15T11:27:27;31.90;;;18.90;;
67757;SDS011;54562;47.620;18.786;2022-11-15T11:30:50;32.40;;;17.90;;
67757;SDS011;54562;47.620;18.786;2022-11-15T11:34:17;28.20;;;17.40;;
67757;SDS011;54562;47.620;18.786;2022-11-15T11:37:40;29.70;;;18.60;;
67757;SDS011;54562;47.620;18.786;2022-11-15T11:41:04;30.90;;;18.00;;
67757;SDS011;54562;47.620;18.786;2022-11-15T11:44:30;31.00;;;17.60;;
67757;SDS011;54562;47.620;18.786;2022-11-15T11:47:50;30.80;;;19.00;;
67757;SDS011;54562;47.620;18.786;2022-11-15T11:51:08;31.50;;;19.10;;
67757;SDS011;54562;47.620;18.786;2022-11-15T11:54:27;34.10;;;18.70;;
67757;SDS011;54562;47.620;18.786;2022-11-15T11:57:48;32.90;;;18.90;;
67757;SDS011;54562;47.620;18.786;2022-11-15T12:01:09;35.10;;;19.20;;
67757;SDS011;54562;47.620;18.786;2022-11-15T12:04:24;32.40;;;19.70;;
67757;SDS011;54562;47.620;18.786;2022-11-15T12:11:00;32.10;;;18.90;;
67757;SDS011;54562;47.620;18.786;2022-11-15T12:14:24;31.70;;;19.20;;
67757;SDS011;54562;47.620;18.786;2022-11-15T12:17:38;33.10;;;19.20;;
67757;SDS011;54562;47.620;18.786;2022-11-15T12:20:53;33.90;;;19.60;;
67757;SDS011;54562;47.620;18.786;2022-11-15T12:24:08;31.10;;;17.60;;
67757;SDS011;54562;47.620;18.786;2022-11-15T12:27:31;33.30;;;19.20;;
67757;SDS011;54562;47.620;18.786;2022-11-15T12:30:49;42.30;;;22.70;;
67757;SDS011;54562;47.620;18.786;2022-11-15T12:34:02;44.10;;;24.00;;
67757;SDS011;54562;47.620;18.786;2022-11-15T12:37:49;40.10;;;23.90;;
67757;SDS011;54562;47.620;18.786;2022-11-15T12:41:17;37.10;;;20.80;;
67757;SDS011;54562;47.620;18.786;2022-11-15T12:44:57;34.40;;;20.10;;
67757;SDS011;54562;47.620;18.786;2022-11-15T12:52:09;33.50;;;19.50;;
67757;SDS011;54562;47.620;18.786;2022-11-15T12:55:33;33.90;;;18.70;;
67757;SDS011;54562;47.620;18.786;2022-11-15T12:58:46;35.20;;;19.70;;
67757;SDS011;54562;47.620;18.786;2022-11-15T13:02:00;34.70;;;20.10;;
67757;SDS011;54562;47.620;18.786;2022-11-15T13:09:49;33.30;;;19.30;;
67757;SDS011;54562;47.620;18.786;2022-11-15T13:12:56;35.20;;;20.00;;
67757;SDS011;54562;47.620;18.786;2022-11-15T13:16:05;33.30;;;19.40;;
67757;SDS011;54562;47.620;18.786;2022-11-15T13:19:15;32.10;;;18.10;;
67757;SDS011;54562;47.620;18.786;2022-11-15T13:22:25;33.20;;;18.70;;
67757;SDS011;54562;47.620;18.786;2022-11-15T13:26:10;35.00;;;20.90;;
67757;SDS011;54562;47.620;18.786;2022-11-15T13:29:21;37.60;;;20.00;;
67757;SDS011;54562;47.620;18.786;2022-11-15T13:32:29;33.50;;;17.90;;
67757;SDS011;54562;47.620;18.786;2022-11-15T13:35:41;36.90;;;20.90;;
67757;SDS011;54562;47.620;18.786;2022-11-15T13:39:00;40.50;;;22.60;;
67757;SDS011;54562;47.620;18.786;2022-11-15T13:42:16;42.40;;;22.40;;
67757;SDS011;54562;47.620;18.786;2022-11-15T13:45:26;40.30;;;22.40;;
67757;SDS011;54562;47.620;18.786;2022-11-15T13:48:34;41.60;;;21.90;;
67757;SDS011;54562;47.620;18.786;2022-11-15T13:51:46;42.80;;;21.90;;
67757;SDS011;54562;47.620;18.786;2022-11-15T13:54:59;39.60;;;22.40;;
67757;SDS011;54562;47.620;18.786;2022-11-15T13:58:13;30.10;;;16.50;;
67757;SDS011;54562;47.620;18.786;2022-11-15T14:01:30;41.70;;;21.30;;
67757;SDS011;54562;47.620;18.786;2022-11-15T14:04:45;42.80;;;22.60;;
67757;SDS011;54562;47.620;18.786;2022-11-15T14:07:56;28.30;;;13.40;;
67757;SDS011;54562;47.620;18.786;2022-11-15T14:11:16;38.70;;;20.10;;
67757;SDS011;54562;47.620;18.786;2022-11-15T14:14:25;37.80;;;16.80;;
67757;SDS011;54562;47.620;18.786;2022-11-15T14:17:39;48.50;;;23.10;;
67757;SDS011;54562;47.620;18.786;2022-11-15T14:21:08;50.90;;;26.30;;
67757;SDS011;54562;47.620;18.786;2022-11-15T14:24:17;42.70;;;22.00;;
67757;SDS011;54562;47.620;18.786;2022-11-15T14:27:28;39.00;;;17.00;;
67757;SDS011;54562;47.620;18.786;2022-11-15T14:30:36;37.50;;;17.00;;
67757;SDS011;54562;47.620;18.786;2022-11-15T14:33:45;43.30;;;21.90;;
67757;SDS011;54562;47.620;18.786;2022-11-15T14:36:54;46.30;;;22.30;;
67757;SDS011;54562;47.620;18.786;2022-11-15T14:40:04;43.80;;;21.50;;
67757;SDS011;54562;47.620;18.786;2022-11-15T14:43:17;47.10;;;23.60;;
67757;SDS011;54562;47.620;18.786;2022-11-15T14:46:26;42.60;;;21.20;;
67757;SDS011;54562;47.620;18.786;2022-11-15T14:49:35;42.30;;;20.00;;
67757;SDS011;54562;47.620;18.786;2022-11-15T14:52:43;43.40;;;21.90;;
67757;SDS011;54562;47.620;18.786;2022-11-15T14:55:52;34.80;;;18.10;;
67757;SDS011;54562;47.620;18.786;2022-11-15T14:59:00;38.40;;;18.50;;
67757;SDS011;54562;47.620;18.786;2022-11-15T15:02:16;41.70;;;21.10;;
67757;SDS011;54562;47.620;18.786;2022-11-15T15:05:29;40.50;;;19.70;;
67757;SDS011;54562;47.620;18.786;2022-11-15T15:08:40;43.80;;;21.20;;
67757;SDS011;54562;47.620;18.786;2022-11-15T15:11:48;36.50;;;17.70;;
67757;SDS011;54562;47.620;18.786;2022-11-15T15:14:56;42.60;;;21.90;;
67757;SDS011;54562;47.620;18.786;2022-11-15T15:18:04;44.20;;;22.40;;
67757;SDS011;54562;47.620;18.786;2022-11-15T15:21:22;41.40;;;22.20;;
67757;SDS011;54562;47.620;18.786;2022-11-15T15:24:39;42.00;;;20.40;;
67757;SDS011;54562;47.620;18.786;2022-11-15T15:27:47;43.10;;;20.30;;
67757;SDS011;54562;47.620;18.786;2022-11-15T15:30:55;44.60;;;22.40;;
67757;SDS011;54562;47.620;18.786;2022-11-15T15:34:03;41.40;;;22.30;;
67757;SDS011;54562;47.620;18.786;2022-11-15T15:37:25;39.00;;;19.90;;
67757;SDS011;54562;47.620;18.786;2022-11-15T15:40:34;44.10;;;20.80;;
67757;SDS011;54562;47.620;18.786;2022-11-15T15:43:42;41.90;;;20.30;;
67757;SDS011;54562;47.620;18.786;2022-11-15T15:46:51;46.20;;;23.40;;
67757;SDS011;54562;47.620;18.786;2022-11-15T15:49:59;47.20;;;22.70;;
67757;SDS011;54562;47.620;18.786;2022-11-15T15:53:07;45.50;;;21.90;;
67757;SDS011;54562;47.620;18.786;2022-11-15T15:56:15;41.40;;;19.30;;
67757;SDS011;54562;47.620;18.786;2022-11-15T15:59:23;41.00;;;20.80;;
67757;SDS011;54562;47.620;18.786;2022-11-15T16:02:31;46.00;;;22.50;;
67757;SDS011;54562;47.620;18.786;2022-11-15T16:05:44;49.60;;;26.20;;
67757;SDS011;54562;47.620;18.786;2022-11-15T16:08:52;52.30;;;27.70;;
67757;SDS011;54562;47.620;18.786;2022-11-15T16:12:20;48.10;;;24.80;;
67757;SDS011;54562;47.620;18.786;2022-11-15T16:15:30;40.70;;;22.40;;
67757;SDS011;54562;47.620;18.786;2022-11-15T16:18:39;47.50;;;24.60;;
67757;SDS011;54562;47.620;18.786;2022-11-15T16:21:47;48.80;;;25.20;;
67757;SDS011;54562;47.620;18.786;2022-11-15T16:24:56;49.10;;;23.70;;
67757;SDS011;54562;47.620;18.786;2022-11-15T16:28:04;51.70;;;25.10;;
67757;SDS011;54562;47.620;18.786;2022-11-15T16:31:18;43.30;;;20.60;;
67757;SDS011;54562;47.620;18.786;2022-11-15T16:34:26;54.60;;;25.20;;
67757;SDS011;54562;47.620;18.786;2022-11-15T16:37:40;52.10;;;25.90;;
67757;SDS011;54562;47.620;18.786;2022-11-15T16:40:50;48.20;;;23.20;;
67757;SDS011;54562;47.620;18.786;2022-11-15T16:43:59;42.50;;;22.10;;
67757;SDS011;54562;47.620;18.786;2022-11-15T16:47:15;42.70;;;21.60;;
67757;SDS011;54562;47.620;18.786;2022-11-15T16:50:27;44.20;;;21.90;;
67757;SDS011;54562;47.620;18.786;2022-11-15T16:53:39;45.70;;;22.70;;
67757;SDS011;54562;47.620;18.786;2022-11-15T16:56:47;52.40;;;23.70;;
67757;SDS011;54562;47.620;18.786;2022-11-15T16:59:55;57.20;;;27.70;;
67757;SDS011;54562;47.620;18.786;2022-11-15T17:03:03;43.40;;;22.60;;
67757;SDS011;54562;47.620;18.786;2022-11-15T17:06:13;43.50;;;21.50;;
67757;SDS011;54562;47.620;18.786;2022-11-15T17:09:23;45.50;;;21.30;;
67757;SDS011;54562;47.620;18.786;2022-11-15T17:12:31;40.20;;;20.10;;
67757;SDS011;54562;47.620;18.786;2022-11-15T17:15:39;39.70;;;19.30;;
67757;SDS011;54562;47.620;18.786;2022-11-15T17:18:51;41.70;;;21.20;;
67757;SDS011;54562;47.620;18.786;2022-11-15T17:21:59;38.70;;;20.20;;
67757;SDS011;54562;47.620;18.786;2022-11-15T17:25:08;44.80;;;21.20;;
67757;SDS011;54562;47.620;18.786;2022-11-15T17:28:17;39.00;;;20.00;;
67757;SDS011;54562;47.620;18.786;2022-11-15T17:31:24;41.00;;;22.70;;
67757;SDS011;54562;47.620;18.786;2022-11-15T17:34:34;40.60;;;19.90;;
67757;SDS011;54562;47.620;18.786;2022-11-15T17:37:42;42.70;;;21.70;;
67757;SDS011;54562;47.620;18.786;2022-11-15T17:41:00;44.90;;;21.80;;
67757;SDS011;54562;47.620;18.786;2022-11-15T17:44:10;42.80;;;21.30;;
67757;SDS011;54562;47.620;18.786;2022-11-15T17:47:18;45.30;;;22.20;;
67757;SDS011;54562;47.620;18.786;2022-11-15T17:50:26;44.60;;;22.40;;
67757;SDS011;54562;47.620;18.786;2022-11-15T17:53:35;43.10;;;21.60;;
67757;SDS011;54562;47.620;18.786;2022-11-15T17:56:45;42.70;;;22.10;;
67757;SDS011;54562;47.620;18.786;2022-11-15T17:59:53;35.20;;;19.00;;
67757;SDS011;54562;47.620;18.786;2022-11-15T18:03:01;51.80;;;25.80;;
67757;SDS011;54562;47.620;18.786;2022-11-15T18:06:10;45.90;;;24.90;;
67757;SDS011;54562;47.620;18.786;2022-11-15T18:09:18;52.80;;;26.90;;
67757;SDS011;54562;47.620;18.786;2022-11-15T18:12:27;50.10;;;26.20;;
67757;SDS011;54562;47.620;18.786;2022-11-15T18:15:34;46.90;;;24.60;;
67757;SDS011;54562;47.620;18.786;2022-11-15T18:18:44;36.10;;;18.80;;
67757;SDS011;54562;47.620;18.786;2022-11-15T18:21:52;40.80;;;21.80;;
67757;SDS011;54562;47.620;18.786;2022-11-15T18:25:03;40.80;;;20.50;;
67757;SDS011;54562;47.620;18.786;2022-11-15T18:28:11;37.80;;;19.00;;
67757;SDS011;54562;47.620;18.786;2022-11-15T18:31:20;37.30;;;19.70;;
67757;SDS011;54562;47.620;18.786;2022-11-15T18:34:29;38.20;;;19.10;;
67757;SDS011;54562;47.620;18.786;2022-11-15T18:37:38;36.60;;;18.60;;
67757;SDS011;54562;47.620;18.786;2022-11-15T18:40:46;37.80;;;18.80;;
67757;SDS011;54562;47.620;18.786;2022-11-15T18:43:54;34.00;;;17.70;;
67757;SDS011;54562;47.620;18.786;2022-11-15T18:47:03;34.50;;;18.80;;
67757;SDS011;54562;47.620;18.786;2022-11-15T18:50:11;32.40;;;17.20;;
67757;SDS011;54562;47.620;18.786;2022-11-15T18:53:19;35.80;;;17.60;;